Colerain, North Carolina
Current Conditions -  °F | °C
As of 8:55 AM on Thursday 23 Oct 2014 (Local Time) from KEDE Reporting Station
Overcast Overcast  
Wind Chill: 51°   Ceiling: 4100
Heat Index: 51°   Visibility: 10mi
Dew Point: 44°   Wind: 9mph
Humidity: 77%   Direction: 310°NW
Pressure: 29.95"   Gusts: NA
Location:  36.2°N, 76.77°W
Report Text: KEDE 231255Z AUTO 31008KT 10SM OVC041 11/07 A2995 RMK AO2 T01070068
Loading
Personal Weather Stations






























Interactive Weather Map
Tropical Storm Tracking
New forecast layout! Learn more

10-Day Weather Forecast

Advertisements
Track Severe Weather on mobile